OISL  Lar Airport

Add Bookmark

Lar, Iran

Status IATA
Operational LRR
Latitude Longitude
27° 40' 28" N 54° 22' 59" E
27.674700 54.383301
Local (DST + 5) UTC (GMT + 4)
Nov 28, 2014 05:55 Nov 28, 2014 14:25
Sunrise-Sunset Local UTC
Begin Civil Twilight 05:57 02:27
Sunrise 06:22 02:52
Sunset 04:58 13:28
End Civil Twilight 05:23 13:53

Current Weather

METAR Observed VFR
OISL 281400Z 26010KT 9999 FEW040 OVC100 20/06 Q1016 Fri, Nov 28, 2014 @ 14:00 UTC
(25 Minutes ago)
Visual Flight Rules
Wind Visibility Clouds Conditions
260° at 10 knots (19 kph) 10 km or more
  • Few at 4,000' AGL
  • Overcast at 10,000' AGL
  • No significant weather
Temperatures Readings Precipitation
Current Temp 20°C (68°F)
Dewpoint 6°C (43°F)
Humidity 40%
Altimeter 30"Hg
Sea Level Pressure 1016mb
Field Elevation 2641.08'
None Recorded

Additional weather within a 185.2km radius of OISL

Map ICAO Location
OIBK 133.7km S (197°)
OIBL 134.3km S (161°)
OIBV 139.6km S (227°)
OIBP 165.4km W (259°)
OIKQ 181.7km S (124°)

24 Hour Weather History

Loading
-

24 Hour Weather Graphs

Loading
-

CheckWX.com is intended as a tool to help pilots better visualize weather data. It is not intended as a substitute for an official weather briefing obtained from a Flight Service Station. CheckWX.com does not meet the FAA requirements for an official pre-flight weather briefing. Therefore, it's important that pilots still call and obtain an official FSS pre-flight weather briefing.